Creek Data

    Home     View Charts     View Raw Data     Messages

ID Distance Battery Voltage Battery Current Internal Temp Internal Humidity External Temp Solar Input rssi snr Time Stamp Record
33494 15.0 3.93 0 86 34 72 5.1 -70 8 02/26/2025 02:15 PM 15186
33493 15.0 3.93 10 85 34 74 5.1 -71 7 02/26/2025 02:00 PM 15185
33492 15.0 4.04 10 83 34 72 5.1 -71 8 02/26/2025 01:45 PM 15184
33491 15.0 3.95 10 81 34 71 5.1 -70 8 02/26/2025 01:30 PM 15183
33490 14.9 3.92 10 80 34 70 5.1 -70 7 02/26/2025 01:15 PM 15182
33489 14.9 4.01 10 79 34 69 5.1 -71 8 02/26/2025 01:00 PM 15181
33488 14.9 3.96 10 77 34 69 5.1 -70 8 02/26/2025 12:45 PM 15180
33487 14.9 3.92 0 76 34 69 5.1 -70 7 02/26/2025 12:30 PM 15179
33486 14.9 3.92 10 74 35 68 5.1 -70 8 02/26/2025 12:15 PM 15178
33485 14.9 3.92 0 73 35 67 5.1 -71 8 02/26/2025 12:00 PM 15177
33484 14.9 3.92 10 71 35 67 5.1 -71 8 02/26/2025 11:45 AM 15176
33483 14.9 3.92 10 71 34 65 5.1 -71 8 02/26/2025 11:30 AM 15175
33482 15.0 3.92 10 71 33 64 5.1 -71 7 02/26/2025 11:15 AM 15174
33481 15.0 3.92 6 68 34 63 5.1 -71 7 02/26/2025 11:00 AM 15173
33480 15.0 3.92 0 66 34 63 5.1 -71 8 02/26/2025 10:45 AM 15172
33479 14.9 3.92 0 64 34 63 5.1 -71 7 02/26/2025 10:30 AM 15171
33478 14.9 3.92 10 62 33 62 5.1 -71 8 02/26/2025 10:15 AM 15170
33477 14.9 3.92 10 61 33 59 5.1 -71 8 02/26/2025 10:00 AM 15169
33476 14.9 3.92 10 55 34 59 5.1 -71 8 02/26/2025 09:30 AM 15167
33475 14.9 3.92 6 53 34 59 5.1 -71 8 02/26/2025 09:15 AM 15166
33474 14.9 3.92 7 51 34 57 5.1 -71 8 02/26/2025 09:00 AM 15165
33473 14.8 3.93 10 48 34 55 5.1 -71 8 02/26/2025 08:45 AM 15164
33472 14.7 3.92 10 44 35 50 5.1 -71 8 02/26/2025 08:15 AM 15162
33471 14.7 3.92 10 42 35 48 5 -71 8 02/26/2025 08:00 AM 15161
33470 14.7 4.03 74 39 36 46 4.5 -71 8 02/26/2025 07:45 AM 15160